LGKO Airport Information

Runway Information
Runway 14 Length 7841 ft width 148 ft
Elevation 412 ft Threshold 0 ft Heading 148
Runway 32 Length 7841 ft Width 148 ft
Elevation 373 ft Threshold 0 ft Heading 328
Airport Frequencies
Type A/G Name IPPOKRATIS Frequency 563.7 MHZ
Type APP Name APP Frequency 119.95 MHZ
Type ATIS Name ATIS Frequency 126.95 MHZ
Type TWR Name IPPOKRATIS Frequency 121.05 MHZ
Airport Navaids
Type VOR-DME Name Kos Frequency 109000 KHZ
Type NDB Name Kos Frequency 311 KHZ
Airport Weather Information & NOTAM
ADDS - METARS form results

(1206 UTC 26 January 2022)
Data provider http://aviationweather.gov/metar/data/
 
METAR text: LGKO 261150Z 35022G32KT 9999 SCT018 07/M04 Q1016
Conditions at: LGKO (KOS AIRPORT , GR) observed 1150 UTC 26 January 2022
Temperature: 7.0°C (45°F)
Dewpoint: -4.0°C (25°F) [RH = 45%]
Pressure (altimeter): 30.00 inches Hg (1016.0 mb)
Winds: from the N (350 degrees) at 25 MPH (22 knots; 11.3 m/s)
gusting to 37 MPH (32 knots; 16.5 m/s)
Visibility: 6 or more miles (10+ km)
Ceiling: at least 12,000 feet AGL
Clouds: scattered clouds at 1800 feet AGL
Weather: no significant weather observed at this time

METAR text: LGKO 261120Z 35021G31KT 9999 SCT018 06/M02 Q1016
Conditions at: LGKO (KOS AIRPORT , GR) observed 1120 UTC 26 January 2022
Temperature: 6.0°C (43°F)
Dewpoint: -2.0°C (28°F) [RH = 56%]
Pressure (altimeter): 30.00 inches Hg (1016.0 mb)
Winds: from the N (350 degrees) at 24 MPH (21 knots; 10.8 m/s)
gusting to 36 MPH (31 knots; 15.9 m/s)
Visibility: 6 or more miles (10+ km)
Ceiling: at least 12,000 feet AGL
Clouds: scattered clouds at 1800 feet AGL
Weather: no significant weather observed at this time

Forecast for: LGKO (KOS AIRPORT , GR)
Text: TAF LGKO 261100Z 2612/2712 36020G30KT 9999 FEW018 SCT020
Forecast period: 1200 to 1800 UTC 26 January 2022
Forecast type: FROM: standard forecast or significant change
Winds: from the N (360 degrees) at 23 MPH (20 knots; 10.3 m/s)
gusting to 34 MPH (30 knots; 15.4 m/s)
Visibility: 6 or more miles (10+ km)
Ceiling: at least 12,000 feet AGL
Clouds: few clouds at 1800 feet AGL
scattered clouds at 2000 feet AGL
Weather: no significant weather forecast for this period
Text: BECMG 2618/2620 36020KT
Forecast period: 1800 UTC 26 January 2022 to 1200 UTC 27 January 2022
Forecast type: BECOMING: Conditions expected to become as follows by 2000 UTC 26 January 2022
Winds: from the N (360 degrees) at 23 MPH (20 knots; 10.3 m/s)
Visibility: 6 or more miles (10+ km)
Ceiling: at least 12,000 feet AGL
Clouds: few clouds at 1800 feet AGL
scattered clouds at 2000 feet AGL
Weather: no significant weather forecast for this period